EDT,Max TemperatureF,Mean TemperatureF,Min TemperatureF,Max Dew PointF,MeanDew PointF,Min DewpointF,Max Humidity, Mean Humidity, Min Humidity, Max Sea Level PressureIn, Mean Sea Level PressureIn, Min Sea Level PressureIn, Max VisibilityMiles, Mean VisibilityMiles, Min VisibilityMiles, Max Wind SpeedMPH, Mean Wind SpeedMPH, Max Gust SpeedMPH,PrecipitationIn, CloudCover, Events, WindDirDegrees
2013-8-1,83,76,69,72,69,68,95,83,61,30.05,29.94,29.88,10,8,2,10,5,20,0.51,6,Rain,209
2013-8-2,85,75,65,69,65,61,94,73,44,30.04,29.99,29.92,10,10,7,7,2,,0.00,1,,259
2013-8-3,84,76,69,74,70,67,95,85,65,30.03,29.99,29.93,10,7,2,9,3,16,0.07,2,Rain,211
2013-8-4,81,73,65,70,63,55,95,73,41,30.05,29.98,29.91,10,8,1,12,3,16,0.00,3,,15
2013-8-5,80,71,62,66,60,54,95,70,42,30.13,30.07,30.04,10,10,5,7,2,,0.00,5,,106
2013-8-6,80,72,65,66,64,60,93,74,59,30.08,30.05,30.01,10,9,2,16,7,24,0.04,6,Rain,203
2013-8-7,85,76,66,68,66,62,94,72,47,30.12,30.08,30.05,10,9,5,13,4,17,0.00,4,,181
2013-8-8,86,78,70,72,69,66,93,74,50,30.09,30.06,30.02,10,10,5,10,4,,0.00,1,,188
2013-8-9,90,82,73,72,71,68,92,72,49,30.06,30.03,29.99,10,9,5,16,7,21,0.00,2,,215
2013-8-10,90,82,73,72,71,68,94,76,48,30.12,30.07,30.03,10,9,1,10,6,,0.04,1,Rain,230
2013-8-11,88,80,71,75,72,69,95,84,52,30.13,30.08,30.03,10,6,1,7,2,,0.01,4,Rain,278
2013-8-12,89,80,72,72,69,63,96,71,42,30.05,30.01,29.96,10,8,0,9,2,,0.00,1,Fog,322
2013-8-13,86,78,70,72,70,69,95,83,58,29.98,29.88,29.80,10,9,1,10,5,22,0.50,3,Rain,227
2013-8-14,72,65,58,71,61,55,95,77,58,30.11,29.98,29.84,10,10,7,10,5,,0.01,3,,4
2013-8-15,74,66,57,61,56,50,96,77,43,30.19,30.14,30.10,10,10,2,9,2,,0.00,1,,25
2013-8-16,71,63,55,60,57,52,96,79,52,30.21,30.16,30.12,10,8,3,9,1,,0.00,1,,42
2013-8-17,71,65,59,68,63,58,94,90,84,30.21,30.18,30.15,10,8,2,13,4,18,0.02,7,Rain,29
2013-8-18,75,70,65,69,66,64,96,89,77,30.23,30.18,30.13,10,8,1,9,4,,0.11,7,Rain,344
2013-8-19,74,69,64,70,66,64,96,91,78,30.22,30.17,30.12,10,9,1,6,1,,0.14,5,Rain,191
2013-8-20,80,72,63,71,67,63,97,84,62,30.22,30.17,30.13,10,7,0,4,0,,0.01,3,Fog,98
2013-8-21,85,78,70,73,70,68,96,88,59,30.25,30.19,30.12,10,8,0,9,2,22,0.36,3,Fog-Rain,188
2013-8-22,87,78,69,72,68,61,96,77,45,30.16,30.09,30.01,10,8,3,8,4,,0.04,2,,251
2013-8-23,84,75,66,73,68,64,93,80,55,30.11,30.01,29.95,10,8,5,13,4,20,0.09,2,Rain,303
2013-8-24,81,71,61,64,59,53,96,71,39,30.33,30.23,30.11,10,9,5,14,5,21,0.00,3,,24
2013-8-25,78,68,58,65,58,51,97,73,39,30.42,30.35,30.31,10,8,0,10,2,16,0.00,1,Fog,37
2013-8-26,81,66,52,60,54,46,95,66,29,30.35,30.24,30.12,10,10,7,7,2,,0.00,0,,221
2013-8-27,87,74,61,70,63,57,89,71,40,30.12,30.03,29.97,10,9,5,7,5,,0.00,1,,238
2013-8-28,78,74,70,73,70,67,93,84,72,30.00,29.95,29.87,7,5,3,10,4,,0.01,2,Rain,224
2013-8-29,84,76,69,72,69,66,95,80,55,30.04,29.94,29.85,10,7,4,13,5,16,0.02,5,Rain,354
2013-8-30,86,74,62,67,63,59,96,73,40,30.09,30.02,29.97,10,7,0,6,1,,0.00,1,Fog,173
2013-8-31,88,77,66,71,67,64,95,74,46,29.98,29.94,29.88,10,9,4,14,5,17,0.00,3,,202